sensor_id;sensor_type;location;lat;lon;timestamp;P1;durP1;ratioP1;P2;durP2;ratioP2
27225;SDS011;14732;51.074;3.788;2022-09-21T00:00:50;12.93;;;7.10;;
27225;SDS011;14732;51.074;3.788;2022-09-21T00:03:17;12.38;;;7.07;;
27225;SDS011;14732;51.074;3.788;2022-09-21T00:05:44;10.98;;;6.95;;
27225;SDS011;14732;51.074;3.788;2022-09-21T00:08:11;10.57;;;7.70;;
27225;SDS011;14732;51.074;3.788;2022-09-21T00:10:38;12.77;;;7.13;;
27225;SDS011;14732;51.074;3.788;2022-09-21T00:13:04;14.57;;;6.95;;
27225;SDS011;14732;51.074;3.788;2022-09-21T00:15:33;14.75;;;7.05;;
27225;SDS011;14732;51.074;3.788;2022-09-21T00:17:59;10.57;;;6.68;;
27225;SDS011;14732;51.074;3.788;2022-09-21T00:20:26;19.25;;;7.50;;
27225;SDS011;14732;51.074;3.788;2022-09-21T00:22:53;10.75;;;6.75;;
27225;SDS011;14732;51.074;3.788;2022-09-21T00:25:19;8.88;;;6.65;;
27225;SDS011;14732;51.074;3.788;2022-09-21T00:27:44;9.48;;;6.75;;
27225;SDS011;14732;51.074;3.788;2022-09-21T00:30:16;10.90;;;6.80;;
27225;SDS011;14732;51.074;3.788;2022-09-21T00:32:42;9.85;;;6.50;;
27225;SDS011;14732;51.074;3.788;2022-09-21T00:35:08;10.93;;;7.03;;
27225;SDS011;14732;51.074;3.788;2022-09-21T00:37:34;12.35;;;6.70;;
27225;SDS011;14732;51.074;3.788;2022-09-21T00:40:01;10.55;;;6.60;;
27225;SDS011;14732;51.074;3.788;2022-09-21T00:42:29;9.55;;;6.85;;
27225;SDS011;14732;51.074;3.788;2022-09-21T00:44:57;12.48;;;7.35;;
27225;SDS011;14732;51.074;3.788;2022-09-21T00:50:06;8.82;;;6.45;;
27225;SDS011;14732;51.074;3.788;2022-09-21T00:52:39;11.52;;;6.57;;
27225;SDS011;14732;51.074;3.788;2022-09-21T00:57:41;10.27;;;6.50;;
27225;SDS011;14732;51.074;3.788;2022-09-21T01:00:08;13.50;;;6.53;;
27225;SDS011;14732;51.074;3.788;2022-09-21T01:02:35;10.38;;;6.72;;
27225;SDS011;14732;51.074;3.788;2022-09-21T01:05:03;10.18;;;6.55;;
27225;SDS011;14732;51.074;3.788;2022-09-21T01:07:31;9.68;;;6.43;;
27225;SDS011;14732;51.074;3.788;2022-09-21T01:10:02;10.50;;;7.03;;
27225;SDS011;14732;51.074;3.788;2022-09-21T01:18:25;12.43;;;6.53;;
27225;SDS011;14732;51.074;3.788;2022-09-21T01:24:04;12.13;;;6.30;;
27225;SDS011;14732;51.074;3.788;2022-09-21T01:26:47;9.45;;;6.28;;
27225;SDS011;14732;51.074;3.788;2022-09-21T01:29:39;12.77;;;6.60;;
27225;SDS011;14732;51.074;3.788;2022-09-21T01:34:39;8.82;;;5.88;;
27225;SDS011;14732;51.074;3.788;2022-09-21T01:37:12;8.05;;;5.65;;
27225;SDS011;14732;51.074;3.788;2022-09-21T01:39:42;9.55;;;5.28;;
27225;SDS011;14732;51.074;3.788;2022-09-21T01:42:11;9.60;;;5.53;;
27225;SDS011;14732;51.074;3.788;2022-09-21T01:44:39;9.05;;;5.80;;
27225;SDS011;14732;51.074;3.788;2022-09-21T01:47:09;9.32;;;5.78;;
27225;SDS011;14732;51.074;3.788;2022-09-21T01:52:12;12.10;;;6.20;;
27225;SDS011;14732;51.074;3.788;2022-09-21T01:57:11;10.15;;;6.22;;
27225;SDS011;14732;51.074;3.788;2022-09-21T01:59:56;10.20;;;5.70;;
27225;SDS011;14732;51.074;3.788;2022-09-21T02:05:02;12.50;;;6.40;;
27225;SDS011;14732;51.074;3.788;2022-09-21T02:07:29;13.55;;;6.18;;
27225;SDS011;14732;51.074;3.788;2022-09-21T02:09:57;8.82;;;5.68;;
27225;SDS011;14732;51.074;3.788;2022-09-21T02:12:26;11.77;;;6.07;;
27225;SDS011;14732;51.074;3.788;2022-09-21T02:14:51;9.85;;;5.75;;
27225;SDS011;14732;51.074;3.788;2022-09-21T02:18:20;9.75;;;5.90;;
27225;SDS011;14732;51.074;3.788;2022-09-21T02:20:35;13.30;;;6.30;;
27225;SDS011;14732;51.074;3.788;2022-09-21T02:23:11;12.25;;;6.32;;
27225;SDS011;14732;51.074;3.788;2022-09-21T02:31:02;8.27;;;5.90;;
27225;SDS011;14732;51.074;3.788;2022-09-21T02:33:40;11.10;;;6.38;;
27225;SDS011;14732;51.074;3.788;2022-09-21T02:36:25;7.45;;;5.75;;
27225;SDS011;14732;51.074;3.788;2022-09-21T02:39:06;10.40;;;6.18;;
27225;SDS011;14732;51.074;3.788;2022-09-21T02:44:34;13.30;;;6.65;;
27225;SDS011;14732;51.074;3.788;2022-09-21T02:47:15;8.60;;;6.18;;
27225;SDS011;14732;51.074;3.788;2022-09-21T02:49:47;9.48;;;6.25;;
27225;SDS011;14732;51.074;3.788;2022-09-21T02:52:17;9.45;;;6.10;;
27225;SDS011;14732;51.074;3.788;2022-09-21T02:54:47;11.38;;;6.70;;
27225;SDS011;14732;51.074;3.788;2022-09-21T02:57:15;8.98;;;5.65;;
27225;SDS011;14732;51.074;3.788;2022-09-21T02:59:42;12.38;;;6.05;;
27225;SDS011;14732;51.074;3.788;2022-09-21T03:02:09;9.18;;;5.47;;
27225;SDS011;14732;51.074;3.788;2022-09-21T03:04:36;15.75;;;5.90;;
27225;SDS011;14732;51.074;3.788;2022-09-21T03:07:05;11.32;;;5.85;;
27225;SDS011;14732;51.074;3.788;2022-09-21T03:09:31;13.07;;;6.00;;
27225;SDS011;14732;51.074;3.788;2022-09-21T03:11:57;11.18;;;5.60;;
27225;SDS011;14732;51.074;3.788;2022-09-21T03:14:22;9.05;;;5.63;;
27225;SDS011;14732;51.074;3.788;2022-09-21T03:16:48;11.40;;;6.80;;
27225;SDS011;14732;51.074;3.788;2022-09-21T03:19:14;9.68;;;6.25;;
27225;SDS011;14732;51.074;3.788;2022-09-21T03:21:40;11.13;;;6.50;;
27225;SDS011;14732;51.074;3.788;2022-09-21T03:24:05;12.60;;;6.38;;
27225;SDS011;14732;51.074;3.788;2022-09-21T03:26:31;10.88;;;6.03;;
27225;SDS011;14732;51.074;3.788;2022-09-21T03:28:57;9.73;;;5.90;;
27225;SDS011;14732;51.074;3.788;2022-09-21T03:31:23;9.45;;;6.03;;
27225;SDS011;14732;51.074;3.788;2022-09-21T03:33:48;10.48;;;6.20;;
27225;SDS011;14732;51.074;3.788;2022-09-21T03:36:14;11.60;;;5.93;;
27225;SDS011;14732;51.074;3.788;2022-09-21T03:38:40;11.68;;;6.13;;
27225;SDS011;14732;51.074;3.788;2022-09-21T03:41:06;9.65;;;6.40;;
27225;SDS011;14732;51.074;3.788;2022-09-21T03:43:32;9.02;;;5.78;;
27225;SDS011;14732;51.074;3.788;2022-09-21T03:45:58;9.90;;;7.32;;
27225;SDS011;14732;51.074;3.788;2022-09-21T03:48:24;13.77;;;6.82;;
27225;SDS011;14732;51.074;3.788;2022-09-21T03:50:49;11.10;;;6.55;;
27225;SDS011;14732;51.074;3.788;2022-09-21T03:53:15;11.40;;;6.53;;
27225;SDS011;14732;51.074;3.788;2022-09-21T03:55:41;13.75;;;7.15;;
27225;SDS011;14732;51.074;3.788;2022-09-21T03:58:07;15.05;;;7.82;;
27225;SDS011;14732;51.074;3.788;2022-09-21T04:00:33;12.77;;;8.23;;
27225;SDS011;14732;51.074;3.788;2022-09-21T04:02:59;14.35;;;7.80;;
27225;SDS011;14732;51.074;3.788;2022-09-21T04:05:26;15.13;;;8.02;;
27225;SDS011;14732;51.074;3.788;2022-09-21T04:07:52;20.60;;;8.40;;
27225;SDS011;14732;51.074;3.788;2022-09-21T04:10:19;13.70;;;8.27;;
27225;SDS011;14732;51.074;3.788;2022-09-21T04:12:47;13.88;;;7.10;;
27225;SDS011;14732;51.074;3.788;2022-09-21T04:15:14;10.57;;;7.20;;
27225;SDS011;14732;51.074;3.788;2022-09-21T04:17:43;13.52;;;7.25;;
27225;SDS011;14732;51.074;3.788;2022-09-21T04:20:15;13.10;;;7.75;;
27225;SDS011;14732;51.074;3.788;2022-09-21T04:22:40;13.50;;;8.35;;
27225;SDS011;14732;51.074;3.788;2022-09-21T04:25:06;12.43;;;7.60;;
27225;SDS011;14732;51.074;3.788;2022-09-21T04:27:32;16.98;;;7.72;;
27225;SDS011;14732;51.074;3.788;2022-09-21T04:29:58;12.50;;;7.78;;
27225;SDS011;14732;51.074;3.788;2022-09-21T04:32:24;14.02;;;8.13;;
27225;SDS011;14732;51.074;3.788;2022-09-21T04:34:50;11.57;;;7.70;;
27225;SDS011;14732;51.074;3.788;2022-09-21T04:37:16;12.73;;;7.97;;
27225;SDS011;14732;51.074;3.788;2022-09-21T04:39:41;15.60;;;7.72;;
27225;SDS011;14732;51.074;3.788;2022-09-21T04:42:08;11.30;;;7.90;;
27225;SDS011;14732;51.074;3.788;2022-09-21T04:44:34;14.23;;;7.60;;
27225;SDS011;14732;51.074;3.788;2022-09-21T04:46:59;16.40;;;7.38;;
27225;SDS011;14732;51.074;3.788;2022-09-21T04:49:25;9.13;;;7.28;;
27225;SDS011;14732;51.074;3.788;2022-09-21T04:51:51;11.75;;;7.40;;
27225;SDS011;14732;51.074;3.788;2022-09-21T04:54:17;11.18;;;7.25;;
27225;SDS011;14732;51.074;3.788;2022-09-21T04:56:42;16.92;;;7.50;;
27225;SDS011;14732;51.074;3.788;2022-09-21T04:59:08;11.23;;;7.05;;
27225;SDS011;14732;51.074;3.788;2022-09-21T05:01:34;15.00;;;7.70;;
27225;SDS011;14732;51.074;3.788;2022-09-21T05:04:00;10.95;;;7.60;;
27225;SDS011;14732;51.074;3.788;2022-09-21T05:06:30;13.63;;;7.20;;
27225;SDS011;14732;51.074;3.788;2022-09-21T05:08:57;13.35;;;7.80;;
27225;SDS011;14732;51.074;3.788;2022-09-21T05:11:42;15.10;;;7.63;;
27225;SDS011;14732;51.074;3.788;2022-09-21T05:14:08;9.38;;;7.20;;
27225;SDS011;14732;51.074;3.788;2022-09-21T05:16:35;11.23;;;7.65;;
27225;SDS011;14732;51.074;3.788;2022-09-21T05:19:00;19.02;;;8.50;;
27225;SDS011;14732;51.074;3.788;2022-09-21T05:21:26;15.05;;;8.18;;
27225;SDS011;14732;51.074;3.788;2022-09-21T05:23:53;16.73;;;7.65;;
27225;SDS011;14732;51.074;3.788;2022-09-21T05:26:19;12.30;;;7.90;;
27225;SDS011;14732;51.074;3.788;2022-09-21T05:28:45;16.98;;;10.18;;
27225;SDS011;14732;51.074;3.788;2022-09-21T05:34:26;11.85;;;8.10;;
27225;SDS011;14732;51.074;3.788;2022-09-21T05:39:42;13.20;;;8.05;;
27225;SDS011;14732;51.074;3.788;2022-09-21T05:42:09;12.80;;;8.32;;
27225;SDS011;14732;51.074;3.788;2022-09-21T05:44:35;11.27;;;7.90;;
27225;SDS011;14732;51.074;3.788;2022-09-21T05:47:03;12.60;;;7.55;;
27225;SDS011;14732;51.074;3.788;2022-09-21T05:49:47;11.38;;;7.90;;
27225;SDS011;14732;51.074;3.788;2022-09-21T05:52:29;16.00;;;8.10;;
27225;SDS011;14732;51.074;3.788;2022-09-21T05:55:25;11.73;;;8.03;;
27225;SDS011;14732;51.074;3.788;2022-09-21T06:03:50;14.27;;;7.57;;
27225;SDS011;14732;51.074;3.788;2022-09-21T06:06:17;9.82;;;7.30;;
27225;SDS011;14732;51.074;3.788;2022-09-21T06:08:44;12.77;;;7.50;;
27225;SDS011;14732;51.074;3.788;2022-09-21T06:11:09;11.30;;;7.28;;
27225;SDS011;14732;51.074;3.788;2022-09-21T06:13:35;12.38;;;7.45;;
27225;SDS011;14732;51.074;3.788;2022-09-21T06:16:01;15.30;;;7.63;;
27225;SDS011;14732;51.074;3.788;2022-09-21T06:18:27;16.95;;;7.90;;
27225;SDS011;14732;51.074;3.788;2022-09-21T06:20:53;14.50;;;8.52;;
27225;SDS011;14732;51.074;3.788;2022-09-21T06:23:19;12.98;;;7.93;;
27225;SDS011;14732;51.074;3.788;2022-09-21T06:25:49;11.10;;;7.55;;
27225;SDS011;14732;51.074;3.788;2022-09-21T06:28:18;14.70;;;8.43;;
27225;SDS011;14732;51.074;3.788;2022-09-21T06:30:49;13.07;;;9.43;;
27225;SDS011;14732;51.074;3.788;2022-09-21T06:33:19;19.25;;;11.30;;
27225;SDS011;14732;51.074;3.788;2022-09-21T06:35:51;16.83;;;12.07;;
27225;SDS011;14732;51.074;3.788;2022-09-21T06:38:21;24.10;;;13.20;;
27225;SDS011;14732;51.074;3.788;2022-09-21T06:40:48;30.10;;;17.80;;
27225;SDS011;14732;51.074;3.788;2022-09-21T06:43:14;28.70;;;17.88;;
27225;SDS011;14732;51.074;3.788;2022-09-21T06:45:40;26.20;;;15.48;;
27225;SDS011;14732;51.074;3.788;2022-09-21T06:48:06;21.88;;;15.82;;
27225;SDS011;14732;51.074;3.788;2022-09-21T06:50:32;18.88;;;13.20;;
27225;SDS011;14732;51.074;3.788;2022-09-21T06:53:01;15.35;;;10.80;;
27225;SDS011;14732;51.074;3.788;2022-09-21T06:55:28;18.00;;;10.80;;
27225;SDS011;14732;51.074;3.788;2022-09-21T06:57:59;22.27;;;11.25;;
27225;SDS011;14732;51.074;3.788;2022-09-21T07:00:25;17.27;;;11.18;;
27225;SDS011;14732;51.074;3.788;2022-09-21T07:02:51;16.83;;;10.43;;
27225;SDS011;14732;51.074;3.788;2022-09-21T07:05:17;14.80;;;10.32;;
27225;SDS011;14732;51.074;3.788;2022-09-21T07:07:42;20.55;;;10.77;;
27225;SDS011;14732;51.074;3.788;2022-09-21T07:10:08;16.90;;;10.30;;
27225;SDS011;14732;51.074;3.788;2022-09-21T07:12:34;16.08;;;10.30;;
27225;SDS011;14732;51.074;3.788;2022-09-21T07:15:00;16.73;;;10.27;;
27225;SDS011;14732;51.074;3.788;2022-09-21T07:17:31;15.50;;;9.38;;
27225;SDS011;14732;51.074;3.788;2022-09-21T07:19:58;22.58;;;10.30;;
27225;SDS011;14732;51.074;3.788;2022-09-21T07:22:26;17.60;;;10.20;;
27225;SDS011;14732;51.074;3.788;2022-09-21T07:24:53;13.02;;;9.25;;
27225;SDS011;14732;51.074;3.788;2022-09-21T07:27:19;15.55;;;10.15;;
27225;SDS011;14732;51.074;3.788;2022-09-21T07:29:44;12.27;;;9.15;;
27225;SDS011;14732;51.074;3.788;2022-09-21T07:32:11;18.08;;;9.35;;
27225;SDS011;14732;51.074;3.788;2022-09-21T07:34:37;19.38;;;10.55;;
27225;SDS011;14732;51.074;3.788;2022-09-21T07:37:03;18.75;;;8.85;;
27225;SDS011;14732;51.074;3.788;2022-09-21T07:39:29;20.48;;;9.27;;
27225;SDS011;14732;51.074;3.788;2022-09-21T07:41:55;15.50;;;9.00;;
27225;SDS011;14732;51.074;3.788;2022-09-21T07:44:22;13.63;;;8.65;;
27225;SDS011;14732;51.074;3.788;2022-09-21T07:46:48;17.92;;;9.10;;
27225;SDS011;14732;51.074;3.788;2022-09-21T07:49:14;13.68;;;7.63;;
27225;SDS011;14732;51.074;3.788;2022-09-21T07:51:40;13.63;;;7.90;;
27225;SDS011;14732;51.074;3.788;2022-09-21T07:54:08;15.38;;;6.88;;
27225;SDS011;14732;51.074;3.788;2022-09-21T07:56:35;12.10;;;7.05;;
27225;SDS011;14732;51.074;3.788;2022-09-21T07:59:01;10.60;;;6.22;;
27225;SDS011;14732;51.074;3.788;2022-09-21T08:01:30;12.93;;;7.18;;
27225;SDS011;14732;51.074;3.788;2022-09-21T08:04:01;13.43;;;6.68;;
27225;SDS011;14732;51.074;3.788;2022-09-21T08:06:28;12.73;;;7.30;;
27225;SDS011;14732;51.074;3.788;2022-09-21T08:08:57;10.70;;;7.03;;
27225;SDS011;14732;51.074;3.788;2022-09-21T08:11:32;12.93;;;6.03;;
27225;SDS011;14732;51.074;3.788;2022-09-21T08:13:59;17.90;;;6.63;;
27225;SDS011;14732;51.074;3.788;2022-09-21T08:16:26;12.27;;;6.25;;
27225;SDS011;14732;51.074;3.788;2022-09-21T08:18:53;9.65;;;5.90;;
27225;SDS011;14732;51.074;3.788;2022-09-21T08:21:19;12.90;;;6.55;;
27225;SDS011;14732;51.074;3.788;2022-09-21T08:23:45;11.57;;;6.95;;
27225;SDS011;14732;51.074;3.788;2022-09-21T08:26:13;19.00;;;9.73;;
27225;SDS011;14732;51.074;3.788;2022-09-21T08:28:46;21.77;;;10.02;;
27225;SDS011;14732;51.074;3.788;2022-09-21T08:31:14;13.60;;;7.78;;
27225;SDS011;14732;51.074;3.788;2022-09-21T08:33:41;13.43;;;7.18;;
27225;SDS011;14732;51.074;3.788;2022-09-21T08:36:07;13.30;;;6.88;;
27225;SDS011;14732;51.074;3.788;2022-09-21T08:38:35;11.05;;;6.65;;
27225;SDS011;14732;51.074;3.788;2022-09-21T08:41:09;13.60;;;7.82;;
27225;SDS011;14732;51.074;3.788;2022-09-21T08:44:32;15.63;;;8.52;;
27225;SDS011;14732;51.074;3.788;2022-09-21T08:46:37;17.55;;;9.13;;
27225;SDS011;14732;51.074;3.788;2022-09-21T08:49:07;18.70;;;10.50;;
27225;SDS011;14732;51.074;3.788;2022-09-21T08:51:49;20.02;;;10.75;;
27225;SDS011;14732;51.074;3.788;2022-09-21T08:54:42;19.90;;;10.10;;
27225;SDS011;14732;51.074;3.788;2022-09-21T08:57:17;18.00;;;9.27;;
27225;SDS011;14732;51.074;3.788;2022-09-21T08:59:44;14.93;;;8.27;;
27225;SDS011;14732;51.074;3.788;2022-09-21T09:04:40;16.65;;;8.00;;
27225;SDS011;14732;51.074;3.788;2022-09-21T09:09:51;17.67;;;8.95;;
27225;SDS011;14732;51.074;3.788;2022-09-21T09:18:32;15.82;;;8.05;;
27225;SDS011;14732;51.074;3.788;2022-09-21T09:23:53;12.18;;;7.72;;
27225;SDS011;14732;51.074;3.788;2022-09-21T09:26:29;10.60;;;5.82;;
27225;SDS011;14732;51.074;3.788;2022-09-21T09:31:55;9.35;;;7.00;;
27225;SDS011;14732;51.074;3.788;2022-09-21T09:34:28;10.27;;;6.07;;
27225;SDS011;14732;51.074;3.788;2022-09-21T09:37:15;12.20;;;7.70;;
27225;SDS011;14732;51.074;3.788;2022-09-21T09:39:42;16.08;;;7.50;;
27225;SDS011;14732;51.074;3.788;2022-09-21T09:42:17;8.40;;;3.67;;
27225;SDS011;14732;51.074;3.788;2022-09-21T09:47:35;7.63;;;3.00;;
27225;SDS011;14732;51.074;3.788;2022-09-21T09:50:36;6.80;;;3.92;;
27225;SDS011;14732;51.074;3.788;2022-09-21T09:53:23;8.10;;;4.85;;
27225;SDS011;14732;51.074;3.788;2022-09-21T09:55:54;9.13;;;4.78;;
27225;SDS011;14732;51.074;3.788;2022-09-21T10:00:54;7.80;;;3.10;;
27225;SDS011;14732;51.074;3.788;2022-09-21T10:03:24;7.22;;;3.40;;
27225;SDS011;14732;51.074;3.788;2022-09-21T10:05:51;6.22;;;2.92;;
27225;SDS011;14732;51.074;3.788;2022-09-21T10:11:01;4.57;;;2.40;;
27225;SDS011;14732;51.074;3.788;2022-09-21T10:13:28;7.10;;;3.72;;
27225;SDS011;14732;51.074;3.788;2022-09-21T10:18:24;9.35;;;3.65;;
27225;SDS011;14732;51.074;3.788;2022-09-21T10:21:02;7.43;;;3.38;;
27225;SDS011;14732;51.074;3.788;2022-09-21T10:23:31;9.45;;;3.40;;
27225;SDS011;14732;51.074;3.788;2022-09-21T10:26:07;5.82;;;2.88;;
27225;SDS011;14732;51.074;3.788;2022-09-21T10:28:35;8.93;;;4.10;;
27225;SDS011;14732;51.074;3.788;2022-09-21T10:31:08;10.95;;;4.40;;
27225;SDS011;14732;51.074;3.788;2022-09-21T10:34:05;10.52;;;3.72;;
27225;SDS011;14732;51.074;3.788;2022-09-21T10:36:32;5.85;;;2.90;;
27225;SDS011;14732;51.074;3.788;2022-09-21T10:39:19;3.47;;;2.83;;
27225;SDS011;14732;51.074;3.788;2022-09-21T10:44:27;8.07;;;3.17;;
27225;SDS011;14732;51.074;3.788;2022-09-21T10:47:27;8.00;;;3.33;;
27225;SDS011;14732;51.074;3.788;2022-09-21T10:50:01;5.80;;;2.50;;
27225;SDS011;14732;51.074;3.788;2022-09-21T10:52:44;5.85;;;2.30;;
27225;SDS011;14732;51.074;3.788;2022-09-21T10:55:14;7.43;;;2.60;;
27225;SDS011;14732;51.074;3.788;2022-09-21T10:57:44;7.82;;;2.67;;
27225;SDS011;14732;51.074;3.788;2022-09-21T11:00:25;6.35;;;2.58;;
27225;SDS011;14732;51.074;3.788;2022-09-21T11:03:00;11.45;;;3.63;;
27225;SDS011;14732;51.074;3.788;2022-09-21T11:05:45;4.82;;;2.30;;
27225;SDS011;14732;51.074;3.788;2022-09-21T11:08:15;4.53;;;2.10;;
27225;SDS011;14732;51.074;3.788;2022-09-21T11:13:31;4.10;;;1.48;;
27225;SDS011;14732;51.074;3.788;2022-09-21T11:16:15;6.05;;;1.90;;
27225;SDS011;14732;51.074;3.788;2022-09-21T11:18:52;5.30;;;1.52;;
27225;SDS011;14732;51.074;3.788;2022-09-21T11:26:40;4.43;;;1.90;;
27225;SDS011;14732;51.074;3.788;2022-09-21T11:31:58;2.25;;;1.35;;
27225;SDS011;14732;51.074;3.788;2022-09-21T11:42:54;4.18;;;1.40;;
27225;SDS011;14732;51.074;3.788;2022-09-21T11:46:11;3.25;;;1.30;;
27225;SDS011;14732;51.074;3.788;2022-09-21T11:57:22;2.97;;;1.23;;
27225;SDS011;14732;51.074;3.788;2022-09-21T12:00:11;4.47;;;1.83;;
27225;SDS011;14732;51.074;3.788;2022-09-21T12:13:48;6.13;;;0.98;;
27225;SDS011;14732;51.074;3.788;2022-09-21T12:19:35;3.57;;;1.20;;
27225;SDS011;14732;51.074;3.788;2022-09-21T12:22:06;3.72;;;1.02;;
27225;SDS011;14732;51.074;3.788;2022-09-21T12:25:38;6.68;;;1.30;;
27225;SDS011;14732;51.074;3.788;2022-09-21T12:27:48;1.75;;;1.10;;
27225;SDS011;14732;51.074;3.788;2022-09-21T12:30:18;4.43;;;1.42;;
27225;SDS011;14732;51.074;3.788;2022-09-21T12:41:04;6.30;;;2.10;;
27225;SDS011;14732;51.074;3.788;2022-09-21T12:46:15;7.22;;;1.98;;
27225;SDS011;14732;51.074;3.788;2022-09-21T12:48:47;4.70;;;2.05;;
27225;SDS011;14732;51.074;3.788;2022-09-21T12:51:15;6.55;;;1.90;;
27225;SDS011;14732;51.074;3.788;2022-09-21T12:53:45;4.95;;;1.75;;
27225;SDS011;14732;51.074;3.788;2022-09-21T13:01:32;4.88;;;1.20;;
27225;SDS011;14732;51.074;3.788;2022-09-21T13:09:18;4.20;;;1.17;;
27225;SDS011;14732;51.074;3.788;2022-09-21T13:11:55;4.15;;;1.27;;
27225;SDS011;14732;51.074;3.788;2022-09-21T13:14:49;3.33;;;1.63;;
27225;SDS011;14732;51.074;3.788;2022-09-21T13:17:21;5.97;;;1.60;;
27225;SDS011;14732;51.074;3.788;2022-09-21T13:22:32;3.83;;;1.30;;
27225;SDS011;14732;51.074;3.788;2022-09-21T13:28:00;5.00;;;1.58;;
27225;SDS011;14732;51.074;3.788;2022-09-21T13:30:40;2.17;;;1.23;;
27225;SDS011;14732;51.074;3.788;2022-09-21T13:38:32;3.13;;;1.45;;
27225;SDS011;14732;51.074;3.788;2022-09-21T13:49:04;5.68;;;1.30;;
27225;SDS011;14732;51.074;3.788;2022-09-21T13:54:16;4.35;;;1.20;;
27225;SDS011;14732;51.074;3.788;2022-09-21T13:56:44;3.38;;;1.33;;
27225;SDS011;14732;51.074;3.788;2022-09-21T13:59:21;3.97;;;1.30;;
27225;SDS011;14732;51.074;3.788;2022-09-21T14:07:10;4.50;;;1.38;;
27225;SDS011;14732;51.074;3.788;2022-09-21T14:09:50;3.78;;;1.50;;
27225;SDS011;14732;51.074;3.788;2022-09-21T14:12:20;6.18;;;1.50;;
27225;SDS011;14732;51.074;3.788;2022-09-21T14:21:26;5.03;;;1.90;;
27225;SDS011;14732;51.074;3.788;2022-09-21T14:23:38;3.97;;;1.60;;
27225;SDS011;14732;51.074;3.788;2022-09-21T14:29:04;4.72;;;1.60;;
27225;SDS011;14732;51.074;3.788;2022-09-21T14:31:44;4.35;;;1.33;;
27225;SDS011;14732;51.074;3.788;2022-09-21T14:34:18;4.35;;;1.30;;
27225;SDS011;14732;51.074;3.788;2022-09-21T14:36:47;4.10;;;1.40;;
27225;SDS011;14732;51.074;3.788;2022-09-21T14:39:50;6.03;;;1.27;;
27225;SDS011;14732;51.074;3.788;2022-09-21T14:42:12;2.42;;;1.10;;
27225;SDS011;14732;51.074;3.788;2022-09-21T14:44:47;4.82;;;1.27;;
27225;SDS011;14732;51.074;3.788;2022-09-21T14:47:28;5.03;;;1.20;;
27225;SDS011;14732;51.074;3.788;2022-09-21T14:50:19;2.60;;;1.00;;
27225;SDS011;14732;51.074;3.788;2022-09-21T15:02:02;2.10;;;1.10;;
27225;SDS011;14732;51.074;3.788;2022-09-21T15:07:36;3.55;;;1.17;;
27225;SDS011;14732;51.074;3.788;2022-09-21T15:10:30;3.97;;;1.60;;
27225;SDS011;14732;51.074;3.788;2022-09-21T15:18:26;3.65;;;1.40;;
27225;SDS011;14732;51.074;3.788;2022-09-21T15:20:59;5.85;;;1.75;;
27225;SDS011;14732;51.074;3.788;2022-09-21T15:23:28;5.05;;;1.33;;
27225;SDS011;14732;51.074;3.788;2022-09-21T15:26:14;2.35;;;1.27;;
27225;SDS011;14732;51.074;3.788;2022-09-21T15:28:45;3.60;;;1.40;;
27225;SDS011;14732;51.074;3.788;2022-09-21T15:31:14;6.13;;;1.13;;
27225;SDS011;14732;51.074;3.788;2022-09-21T15:33:40;3.88;;;1.17;;
27225;SDS011;14732;51.074;3.788;2022-09-21T15:36:12;3.50;;;1.00;;
27225;SDS011;14732;51.074;3.788;2022-09-21T15:38:46;3.17;;;1.10;;
27225;SDS011;14732;51.074;3.788;2022-09-21T15:41:17;4.75;;;1.17;;
27225;SDS011;14732;51.074;3.788;2022-09-21T15:44:04;4.95;;;1.00;;
27225;SDS011;14732;51.074;3.788;2022-09-21T15:46:46;2.35;;;0.95;;
27225;SDS011;14732;51.074;3.788;2022-09-21T15:49:16;4.18;;;1.17;;
27225;SDS011;14732;51.074;3.788;2022-09-21T15:51:55;3.72;;;1.00;;
27225;SDS011;14732;51.074;3.788;2022-09-21T15:54:47;4.47;;;1.00;;
27225;SDS011;14732;51.074;3.788;2022-09-21T15:57:30;5.97;;;1.27;;
27225;SDS011;14732;51.074;3.788;2022-09-21T16:00:00;3.95;;;0.77;;
27225;SDS011;14732;51.074;3.788;2022-09-21T16:02:56;5.38;;;1.50;;
27225;SDS011;14732;51.074;3.788;2022-09-21T16:05:29;3.10;;;1.00;;
27225;SDS011;14732;51.074;3.788;2022-09-21T16:08:19;3.45;;;0.82;;
27225;SDS011;14732;51.074;3.788;2022-09-21T16:10:47;2.35;;;1.10;;
27225;SDS011;14732;51.074;3.788;2022-09-21T16:16:07;2.20;;;0.90;;
27225;SDS011;14732;51.074;3.788;2022-09-21T16:18:55;6.43;;;0.90;;
27225;SDS011;14732;51.074;3.788;2022-09-21T16:21:27;3.70;;;0.90;;
27225;SDS011;14732;51.074;3.788;2022-09-21T16:24:19;6.68;;;1.00;;
27225;SDS011;14732;51.074;3.788;2022-09-21T16:26:55;6.53;;;1.20;;
27225;SDS011;14732;51.074;3.788;2022-09-21T16:29:24;7.20;;;0.90;;
27225;SDS011;14732;51.074;3.788;2022-09-21T16:34:46;8.80;;;1.10;;
27225;SDS011;14732;51.074;3.788;2022-09-21T16:39:44;3.13;;;1.00;;
27225;SDS011;14732;51.074;3.788;2022-09-21T16:42:10;5.63;;;1.13;;
27225;SDS011;14732;51.074;3.788;2022-09-21T16:44:37;4.60;;;1.20;;
27225;SDS011;14732;51.074;3.788;2022-09-21T16:47:04;2.97;;;1.00;;
27225;SDS011;14732;51.074;3.788;2022-09-21T16:49:49;3.50;;;1.02;;
27225;SDS011;14732;51.074;3.788;2022-09-21T16:52:20;3.55;;;0.98;;
27225;SDS011;14732;51.074;3.788;2022-09-21T16:54:47;4.30;;;1.15;;
27225;SDS011;14732;51.074;3.788;2022-09-21T16:57:13;3.17;;;1.10;;
27225;SDS011;14732;51.074;3.788;2022-09-21T16:59:39;3.13;;;1.00;;
27225;SDS011;14732;51.074;3.788;2022-09-21T17:02:05;6.22;;;1.23;;
27225;SDS011;14732;51.074;3.788;2022-09-21T17:04:33;5.25;;;1.10;;
27225;SDS011;14732;51.074;3.788;2022-09-21T17:06:59;5.15;;;1.10;;
27225;SDS011;14732;51.074;3.788;2022-09-21T17:09:37;6.43;;;1.15;;
27225;SDS011;14732;51.074;3.788;2022-09-21T17:12:10;8.32;;;1.23;;
27225;SDS011;14732;51.074;3.788;2022-09-21T17:14:38;10.63;;;1.50;;
27225;SDS011;14732;51.074;3.788;2022-09-21T17:19:35;3.75;;;1.70;;
27225;SDS011;14732;51.074;3.788;2022-09-21T17:22:01;5.70;;;1.52;;
27225;SDS011;14732;51.074;3.788;2022-09-21T17:24:28;4.65;;;1.58;;
27225;SDS011;14732;51.074;3.788;2022-09-21T17:26:55;8.23;;;1.75;;
27225;SDS011;14732;51.074;3.788;2022-09-21T17:29:21;4.22;;;1.60;;
27225;SDS011;14732;51.074;3.788;2022-09-21T17:31:54;5.95;;;1.80;;
27225;SDS011;14732;51.074;3.788;2022-09-21T17:34:22;5.32;;;1.70;;
27225;SDS011;14732;51.074;3.788;2022-09-21T17:36:53;3.63;;;1.70;;
27225;SDS011;14732;51.074;3.788;2022-09-21T17:39:20;6.95;;;1.80;;
27225;SDS011;14732;51.074;3.788;2022-09-21T17:41:50;7.40;;;2.60;;
27225;SDS011;14732;51.074;3.788;2022-09-21T17:47:21;3.28;;;1.73;;
27225;SDS011;14732;51.074;3.788;2022-09-21T17:49:53;5.10;;;2.00;;
27225;SDS011;14732;51.074;3.788;2022-09-21T17:52:26;12.05;;;2.30;;
27225;SDS011;14732;51.074;3.788;2022-09-21T17:55:10;9.55;;;2.75;;
27225;SDS011;14732;51.074;3.788;2022-09-21T18:00:25;7.15;;;2.30;;
27225;SDS011;14732;51.074;3.788;2022-09-21T18:03:28;9.25;;;2.58;;
27225;SDS011;14732;51.074;3.788;2022-09-21T18:05:55;5.45;;;2.40;;
27225;SDS011;14732;51.074;3.788;2022-09-21T18:08:23;4.60;;;2.63;;
27225;SDS011;14732;51.074;3.788;2022-09-21T18:21:24;13.63;;;5.38;;
27225;SDS011;14732;51.074;3.788;2022-09-21T18:26:43;15.85;;;8.85;;
27225;SDS011;14732;51.074;3.788;2022-09-21T18:29:18;32.20;;;12.60;;
27225;SDS011;14732;51.074;3.788;2022-09-21T18:38:01;19.52;;;10.43;;
27225;SDS011;14732;51.074;3.788;2022-09-21T18:45:32;17.83;;;8.77;;
27225;SDS011;14732;51.074;3.788;2022-09-21T18:53:51;16.05;;;8.70;;
27225;SDS011;14732;51.074;3.788;2022-09-21T18:56:20;18.67;;;9.38;;
27225;SDS011;14732;51.074;3.788;2022-09-21T18:58:51;15.50;;;8.15;;
27225;SDS011;14732;51.074;3.788;2022-09-21T19:01:17;17.60;;;8.63;;
27225;SDS011;14732;51.074;3.788;2022-09-21T19:03:46;14.50;;;7.53;;